sensor_id;sensor_type;location;lat;lon;timestamp;pressure;altitude;pressure_sealevel;temperature;humidity
34237;BME280;20501;45.956;13.632;2023-04-15T00:02:16;99655.34;;;13.31;64.71
34237;BME280;20501;45.956;13.632;2023-04-15T00:04:45;99651.16;;;12.97;65.83
34237;BME280;20501;45.956;13.632;2023-04-15T00:07:11;99650.41;;;13.11;65.42
34237;BME280;20501;45.956;13.632;2023-04-15T00:09:36;99645.03;;;13.26;64.89
34237;BME280;20501;45.956;13.632;2023-04-15T00:12:02;99643.47;;;13.32;64.67
34237;BME280;20501;45.956;13.632;2023-04-15T00:14:28;99640.84;;;13.24;64.66
34237;BME280;20501;45.956;13.632;2023-04-15T00:16:53;99640.97;;;13.30;64.56
34237;BME280;20501;45.956;13.632;2023-04-15T00:19:20;99651.22;;;11.18;72.63
34237;BME280;20501;45.956;13.632;2023-04-15T00:21:46;99652.06;;;11.43;71.25
34237;BME280;20501;45.956;13.632;2023-04-15T00:24:11;99650.09;;;8.83;82.47
34237;BME280;20501;45.956;13.632;2023-04-15T00:26:38;99653.09;;;9.35;81.55
34237;BME280;20501;45.956;13.632;2023-04-15T00:29:03;99653.38;;;10.47;77.06
34237;BME280;20501;45.956;13.632;2023-04-15T00:31:30;99644.59;;;10.96;74.88
34237;BME280;20501;45.956;13.632;2023-04-15T00:33:56;99642.56;;;12.14;69.70
34237;BME280;20501;45.956;13.632;2023-04-15T00:36:21;99644.78;;;11.77;71.24
34237;BME280;20501;45.956;13.632;2023-04-15T00:38:47;99646.31;;;11.63;71.75
34237;BME280;20501;45.956;13.632;2023-04-15T00:41:13;99645.47;;;11.63;71.77
34237;BME280;20501;45.956;13.632;2023-04-15T00:43:38;99641.91;;;11.79;71.08
34237;BME280;20501;45.956;13.632;2023-04-15T00:46:04;99643.22;;;12.16;69.34
34237;BME280;20501;45.956;13.632;2023-04-15T00:48:31;99635.06;;;12.64;67.61
34237;BME280;20501;45.956;13.632;2023-04-15T00:50:56;99635.59;;;12.11;69.35
34237;BME280;20501;45.956;13.632;2023-04-15T00:53:22;99634.47;;;12.85;66.49
34237;BME280;20501;45.956;13.632;2023-04-15T00:55:48;99632.69;;;13.00;66.03
34237;BME280;20501;45.956;13.632;2023-04-15T00:58:14;99637.75;;;13.04;65.89
34237;BME280;20501;45.956;13.632;2023-04-15T01:00:41;99639.03;;;12.05;69.38
34237;BME280;20501;45.956;13.632;2023-04-15T01:03:07;99627.75;;;12.41;68.53
34237;BME280;20501;45.956;13.632;2023-04-15T01:05:32;99631.63;;;12.47;68.17
34237;BME280;20501;45.956;13.632;2023-04-15T01:07:58;99618.28;;;13.00;66.27
34237;BME280;20501;45.956;13.632;2023-04-15T01:10:23;99613.91;;;13.22;65.39
34237;BME280;20501;45.956;13.632;2023-04-15T01:12:49;99623.69;;;13.23;65.03
34237;BME280;20501;45.956;13.632;2023-04-15T01:15:15;99613.34;;;13.04;65.64
34237;BME280;20501;45.956;13.632;2023-04-15T01:17:41;99617.19;;;13.09;65.58
34237;BME280;20501;45.956;13.632;2023-04-15T01:20:07;99622.03;;;13.22;64.85
34237;BME280;20501;45.956;13.632;2023-04-15T01:22:36;99619.66;;;12.25;68.11
34237;BME280;20501;45.956;13.632;2023-04-15T01:25:09;99611.50;;;13.04;65.80
34237;BME280;20501;45.956;13.632;2023-04-15T01:27:38;99616.78;;;13.21;65.09
34237;BME280;20501;45.956;13.632;2023-04-15T01:30:05;99616.34;;;11.89;69.95
34237;BME280;20501;45.956;13.632;2023-04-15T01:32:31;99614.66;;;11.97;69.57
34237;BME280;20501;45.956;13.632;2023-04-15T01:34:56;99613.72;;;10.13;76.83
34237;BME280;20501;45.956;13.632;2023-04-15T01:37:22;99608.41;;;9.50;80.29
34237;BME280;20501;45.956;13.632;2023-04-15T01:39:47;99611.44;;;9.73;79.62
34237;BME280;20501;45.956;13.632;2023-04-15T01:42:12;99606.28;;;9.36;81.28
34237;BME280;20501;45.956;13.632;2023-04-15T01:44:38;99613.78;;;9.95;79.30
34237;BME280;20501;45.956;13.632;2023-04-15T01:47:03;99607.25;;;9.53;80.80
34237;BME280;20501;45.956;13.632;2023-04-15T01:49:29;99602.69;;;11.08;73.09
34237;BME280;20501;45.956;13.632;2023-04-15T01:51:55;99620.97;;;11.23;72.82
34237;BME280;20501;45.956;13.632;2023-04-15T01:54:20;99614.59;;;12.30;69.15
34237;BME280;20501;45.956;13.632;2023-04-15T01:56:46;99610.59;;;12.49;67.89
34237;BME280;20501;45.956;13.632;2023-04-15T01:59:11;99617.78;;;11.44;71.66
34237;BME280;20501;45.956;13.632;2023-04-15T02:01:37;99616.78;;;10.52;75.89
34237;BME280;20501;45.956;13.632;2023-04-15T02:04:03;99615.13;;;10.68;75.65
34237;BME280;20501;45.956;13.632;2023-04-15T02:06:28;99620.94;;;11.81;71.07
34237;BME280;20501;45.956;13.632;2023-04-15T02:08:53;99619.38;;;10.79;74.46
34237;BME280;20501;45.956;13.632;2023-04-15T02:11:19;99616.00;;;10.68;75.41
34237;BME280;20501;45.956;13.632;2023-04-15T02:13:44;99618.88;;;10.83;74.58
34237;BME280;20501;45.956;13.632;2023-04-15T02:16:17;99619.28;;;11.55;71.97
34237;BME280;20501;45.956;13.632;2023-04-15T02:18:44;99620.81;;;11.49;71.31
34237;BME280;20501;45.956;13.632;2023-04-15T02:21:10;99617.25;;;11.49;71.85
34237;BME280;20501;45.956;13.632;2023-04-15T02:23:35;99605.91;;;12.43;68.40
34237;BME280;20501;45.956;13.632;2023-04-15T02:26:01;99609.72;;;12.88;66.41
34237;BME280;20501;45.956;13.632;2023-04-15T02:28:26;99602.00;;;12.77;66.66
34237;BME280;20501;45.956;13.632;2023-04-15T02:30:51;99605.94;;;12.97;66.01
34237;BME280;20501;45.956;13.632;2023-04-15T02:33:18;99602.66;;;12.47;67.84
34237;BME280;20501;45.956;13.632;2023-04-15T02:35:44;99605.03;;;10.78;73.53
34237;BME280;20501;45.956;13.632;2023-04-15T02:38:10;99595.91;;;10.79;74.09
34237;BME280;20501;45.956;13.632;2023-04-15T02:40:36;99589.81;;;10.86;73.41
34237;BME280;20501;45.956;13.632;2023-04-15T02:43:01;99582.00;;;9.54;77.71
34237;BME280;20501;45.956;13.632;2023-04-15T02:45:26;99584.03;;;9.34;80.28
34237;BME280;20501;45.956;13.632;2023-04-15T02:47:52;99585.03;;;9.33;79.40
34237;BME280;20501;45.956;13.632;2023-04-15T02:50:18;99587.72;;;10.55;75.44
34237;BME280;20501;45.956;13.632;2023-04-15T02:52:44;99584.34;;;10.10;76.42
34237;BME280;20501;45.956;13.632;2023-04-15T02:55:09;99591.78;;;10.50;75.69
34237;BME280;20501;45.956;13.632;2023-04-15T02:57:35;99589.88;;;11.10;72.54
34237;BME280;20501;45.956;13.632;2023-04-15T03:00:02;99586.94;;;10.28;74.51
34237;BME280;20501;45.956;13.632;2023-04-15T03:02:33;99595.13;;;10.44;74.47
34237;BME280;20501;45.956;13.632;2023-04-15T03:04:59;99584.53;;;9.82;76.73
34237;BME280;20501;45.956;13.632;2023-04-15T03:07:25;99584.47;;;9.73;76.13
34237;BME280;20501;45.956;13.632;2023-04-15T03:09:50;99585.81;;;9.69;77.08
34237;BME280;20501;45.956;13.632;2023-04-15T03:12:16;99578.13;;;10.17;74.07
34237;BME280;20501;45.956;13.632;2023-04-15T03:14:41;99587.56;;;9.34;75.77
34237;BME280;20501;45.956;13.632;2023-04-15T03:17:07;99581.47;;;9.50;77.53
34237;BME280;20501;45.956;13.632;2023-04-15T03:19:32;99588.53;;;10.38;75.07
34237;BME280;20501;45.956;13.632;2023-04-15T03:21:58;99591.59;;;9.56;73.26
34237;BME280;20501;45.956;13.632;2023-04-15T03:24:23;99600.28;;;9.95;75.05
34237;BME280;20501;45.956;13.632;2023-04-15T03:26:49;99601.22;;;11.55;70.67
34237;BME280;20501;45.956;13.632;2023-04-15T03:29:14;99592.63;;;12.16;67.89
34237;BME280;20501;45.956;13.632;2023-04-15T03:31:40;99591.72;;;12.64;66.16
34237;BME280;20501;45.956;13.632;2023-04-15T03:34:05;99592.19;;;12.76;65.50
34237;BME280;20501;45.956;13.632;2023-04-15T03:36:31;99593.09;;;12.91;65.12
34237;BME280;20501;45.956;13.632;2023-04-15T03:38:59;99600.13;;;12.77;65.24
34237;BME280;20501;45.956;13.632;2023-04-15T03:41:26;99597.06;;;12.49;66.37
34237;BME280;20501;45.956;13.632;2023-04-15T03:43:52;99598.63;;;12.75;65.05
34237;BME280;20501;45.956;13.632;2023-04-15T03:46:18;99600.56;;;12.89;64.91
34237;BME280;20501;45.956;13.632;2023-04-15T03:48:43;99592.31;;;13.06;64.39
34237;BME280;20501;45.956;13.632;2023-04-15T03:51:09;99593.41;;;12.65;65.59
34237;BME280;20501;45.956;13.632;2023-04-15T03:53:34;99588.94;;;12.80;65.22
34237;BME280;20501;45.956;13.632;2023-04-15T03:55:59;99591.72;;;12.95;64.81
34237;BME280;20501;45.956;13.632;2023-04-15T03:58:25;99589.19;;;12.94;65.03
34237;BME280;20501;45.956;13.632;2023-04-15T04:00:51;99593.41;;;12.96;64.64
34237;BME280;20501;45.956;13.632;2023-04-15T04:03:16;99586.91;;;13.06;64.33
34237;BME280;20501;45.956;13.632;2023-04-15T04:05:42;99594.81;;;13.15;64.19
34237;BME280;20501;45.956;13.632;2023-04-15T04:08:08;99593.34;;;13.05;64.49
34237;BME280;20501;45.956;13.632;2023-04-15T04:10:34;99594.84;;;12.52;65.67
34237;BME280;20501;45.956;13.632;2023-04-15T04:13:00;99598.34;;;12.30;66.96
34237;BME280;20501;45.956;13.632;2023-04-15T04:15:26;99592.78;;;12.86;65.19
34237;BME280;20501;45.956;13.632;2023-04-15T04:17:51;99592.66;;;12.79;65.43
34237;BME280;20501;45.956;13.632;2023-04-15T04:20:17;99593.47;;;12.88;65.12
34237;BME280;20501;45.956;13.632;2023-04-15T04:22:42;99589.25;;;13.09;64.57
34237;BME280;20501;45.956;13.632;2023-04-15T04:25:08;99589.00;;;12.95;64.88
34237;BME280;20501;45.956;13.632;2023-04-15T04:27:37;99596.19;;;12.80;65.14
34237;BME280;20501;45.956;13.632;2023-04-15T04:30:03;99596.06;;;13.05;64.41
34237;BME280;20501;45.956;13.632;2023-04-15T04:32:28;99590.22;;;13.16;64.20
34237;BME280;20501;45.956;13.632;2023-04-15T04:34:54;99596.31;;;12.95;64.81
34237;BME280;20501;45.956;13.632;2023-04-15T04:37:20;99591.47;;;12.50;66.13
34237;BME280;20501;45.956;13.632;2023-04-15T04:39:45;99598.75;;;13.05;64.78
34237;BME280;20501;45.956;13.632;2023-04-15T04:42:10;99595.44;;;12.94;64.88
34237;BME280;20501;45.956;13.632;2023-04-15T04:44:36;99597.88;;;13.12;64.22
34237;BME280;20501;45.956;13.632;2023-04-15T04:47:01;99605.47;;;12.22;65.76
34237;BME280;20501;45.956;13.632;2023-04-15T04:49:27;99609.84;;;9.36;78.45
34237;BME280;20501;45.956;13.632;2023-04-15T04:51:52;99610.53;;;10.60;74.38
34237;BME280;20501;45.956;13.632;2023-04-15T04:54:18;99613.81;;;12.13;68.59
34237;BME280;20501;45.956;13.632;2023-04-15T04:56:43;99612.44;;;12.08;68.22
34237;BME280;20501;45.956;13.632;2023-04-15T04:59:08;99613.47;;;12.87;65.49
34237;BME280;20501;45.956;13.632;2023-04-15T05:01:34;99608.78;;;13.04;64.67
34237;BME280;20501;45.956;13.632;2023-04-15T05:03:59;99615.06;;;12.73;65.64
34237;BME280;20501;45.956;13.632;2023-04-15T05:06:25;99605.41;;;13.02;64.67
34237;BME280;20501;45.956;13.632;2023-04-15T05:08:50;99606.28;;;13.18;64.08
34237;BME280;20501;45.956;13.632;2023-04-15T05:11:16;99606.72;;;12.43;66.81
34237;BME280;20501;45.956;13.632;2023-04-15T05:13:41;99614.06;;;12.97;65.06
34237;BME280;20501;45.956;13.632;2023-04-15T05:16:07;99612.16;;;13.06;64.70
34237;BME280;20501;45.956;13.632;2023-04-15T05:18:32;99613.47;;;13.10;64.47
34237;BME280;20501;45.956;13.632;2023-04-15T05:20:58;99618.75;;;12.41;66.96
34237;BME280;20501;45.956;13.632;2023-04-15T05:23:24;99617.59;;;12.98;64.87
34237;BME280;20501;45.956;13.632;2023-04-15T05:25:49;99620.94;;;12.45;66.76
34237;BME280;20501;45.956;13.632;2023-04-15T05:28:15;99617.19;;;13.09;64.52
34237;BME280;20501;45.956;13.632;2023-04-15T05:30:40;99617.50;;;13.14;64.25
34237;BME280;20501;45.956;13.632;2023-04-15T05:33:06;99621.56;;;12.56;66.22
34237;BME280;20501;45.956;13.632;2023-04-15T05:35:31;99622.25;;;12.89;65.32
34237;BME280;20501;45.956;13.632;2023-04-15T05:37:57;99627.16;;;12.94;65.23
34237;BME280;20501;45.956;13.632;2023-04-15T05:40:22;99619.84;;;13.18;64.17
34237;BME280;20501;45.956;13.632;2023-04-15T05:42:48;99627.78;;;12.25;67.39
34237;BME280;20501;45.956;13.632;2023-04-15T05:45:13;99622.97;;;12.51;64.64
34237;BME280;20501;45.956;13.632;2023-04-15T05:47:39;99620.19;;;12.91;65.27
34237;BME280;20501;45.956;13.632;2023-04-15T05:50:05;99628.31;;;12.20;67.77
34237;BME280;20501;45.956;13.632;2023-04-15T05:52:31;99634.78;;;11.94;66.66
34237;BME280;20501;45.956;13.632;2023-04-15T05:54:56;99638.34;;;11.78;68.44
34237;BME280;20501;45.956;13.632;2023-04-15T05:57:22;99630.41;;;12.81;65.71
34237;BME280;20501;45.956;13.632;2023-04-15T05:59:47;99638.63;;;12.96;64.21
34237;BME280;20501;45.956;13.632;2023-04-15T06:02:13;99624.38;;;13.02;64.61
34237;BME280;20501;45.956;13.632;2023-04-15T06:04:39;99633.75;;;12.91;64.60
34237;BME280;20501;45.956;13.632;2023-04-15T06:07:04;99640.47;;;12.32;66.15
34237;BME280;20501;45.956;13.632;2023-04-15T06:09:30;99633.84;;;12.35;66.92
34237;BME280;20501;45.956;13.632;2023-04-15T06:11:55;99629.13;;;13.00;64.60
34237;BME280;20501;45.956;13.632;2023-04-15T06:14:22;99637.03;;;12.47;66.58
34237;BME280;20501;45.956;13.632;2023-04-15T06:16:47;99641.31;;;13.04;64.56
34237;BME280;20501;45.956;13.632;2023-04-15T06:19:13;99635.75;;;13.21;64.00
34237;BME280;20501;45.956;13.632;2023-04-15T06:21:39;99637.78;;;12.95;65.17
34237;BME280;20501;45.956;13.632;2023-04-15T06:24:04;99629.44;;;13.05;64.44
34237;BME280;20501;45.956;13.632;2023-04-15T06:26:30;99632.63;;;13.09;64.33
34237;BME280;20501;45.956;13.632;2023-04-15T06:28:55;99635.66;;;11.70;70.06
34237;BME280;20501;45.956;13.632;2023-04-15T06:31:21;99628.91;;;12.38;67.48
34237;BME280;20501;45.956;13.632;2023-04-15T06:33:46;99630.88;;;12.93;65.15
34237;BME280;20501;45.956;13.632;2023-04-15T06:36:12;99636.75;;;12.33;67.51
34237;BME280;20501;45.956;13.632;2023-04-15T06:38:37;99636.63;;;12.18;68.00
34237;BME280;20501;45.956;13.632;2023-04-15T06:41:03;99636.63;;;12.58;66.81
34237;BME280;20501;45.956;13.632;2023-04-15T06:43:29;99634.53;;;13.00;65.37
34237;BME280;20501;45.956;13.632;2023-04-15T06:45:55;99630.75;;;13.09;64.95
34237;BME280;20501;45.956;13.632;2023-04-15T06:48:21;99633.72;;;13.23;64.40
34237;BME280;20501;45.956;13.632;2023-04-15T06:50:47;99644.34;;;12.78;65.88
34237;BME280;20501;45.956;13.632;2023-04-15T06:53:13;99641.47;;;13.03;65.67
34237;BME280;20501;45.956;13.632;2023-04-15T06:55:38;99638.69;;;11.83;67.32
34237;BME280;20501;45.956;13.632;2023-04-15T06:58:04;99643.28;;;11.25;70.54
34237;BME280;20501;45.956;13.632;2023-04-15T07:00:30;99639.75;;;11.41;71.02
34237;BME280;20501;45.956;13.632;2023-04-15T07:02:55;99644.47;;;11.47;68.79
34237;BME280;20501;45.956;13.632;2023-04-15T07:05:21;99645.78;;;12.09;68.40
34237;BME280;20501;45.956;13.632;2023-04-15T07:07:46;99641.41;;;12.56;66.73
34237;BME280;20501;45.956;13.632;2023-04-15T07:10:12;99644.78;;;12.50;66.41
34237;BME280;20501;45.956;13.632;2023-04-15T07:12:39;99642.94;;;11.77;69.03
34237;BME280;20501;45.956;13.632;2023-04-15T07:15:04;99645.25;;;11.97;68.41
34237;BME280;20501;45.956;13.632;2023-04-15T07:17:31;99642.72;;;12.60;66.51
34237;BME280;20501;45.956;13.632;2023-04-15T07:19:56;99636.84;;;12.80;65.85
34237;BME280;20501;45.956;13.632;2023-04-15T07:22:21;99648.44;;;12.97;65.27
34237;BME280;20501;45.956;13.632;2023-04-15T07:24:47;99644.56;;;12.68;66.15
34237;BME280;20501;45.956;13.632;2023-04-15T07:27:12;99651.22;;;12.49;66.88
34237;BME280;20501;45.956;13.632;2023-04-15T07:29:37;99641.66;;;13.01;64.98
34237;BME280;20501;45.956;13.632;2023-04-15T07:32:03;99647.28;;;12.91;65.53
34237;BME280;20501;45.956;13.632;2023-04-15T07:34:29;99648.50;;;12.89;65.62
34237;BME280;20501;45.956;13.632;2023-04-15T07:36:54;99650.91;;;12.83;65.84
34237;BME280;20501;45.956;13.632;2023-04-15T07:39:19;99652.81;;;10.78;75.35
34237;BME280;20501;45.956;13.632;2023-04-15T07:41:45;99651.81;;;10.44;77.51
34237;BME280;20501;45.956;13.632;2023-04-15T07:44:10;99651.81;;;10.79;75.43
34237;BME280;20501;45.956;13.632;2023-04-15T07:46:36;99648.34;;;11.44;72.56
34237;BME280;20501;45.956;13.632;2023-04-15T07:49:02;99658.66;;;12.07;69.84
34237;BME280;20501;45.956;13.632;2023-04-15T07:51:27;99655.28;;;11.30;74.63
34237;BME280;20501;45.956;13.632;2023-04-15T07:53:54;99655.13;;;11.82;70.97
34237;BME280;20501;45.956;13.632;2023-04-15T07:56:19;99664.72;;;11.26;74.36
34237;BME280;20501;45.956;13.632;2023-04-15T07:58:44;99659.38;;;10.75;75.82
34237;BME280;20501;45.956;13.632;2023-04-15T08:01:10;99667.19;;;10.87;74.15
34237;BME280;20501;45.956;13.632;2023-04-15T08:03:35;99668.28;;;11.52;72.82
34237;BME280;20501;45.956;13.632;2023-04-15T08:06:01;99668.44;;;11.91;71.00
34237;BME280;20501;45.956;13.632;2023-04-15T08:08:27;99667.09;;;11.96;71.30
34237;BME280;20501;45.956;13.632;2023-04-15T08:10:52;99664.75;;;12.09;70.24
34237;BME280;20501;45.956;13.632;2023-04-15T08:13:18;99664.91;;;11.99;70.47
34237;BME280;20501;45.956;13.632;2023-04-15T08:15:43;99659.84;;;12.92;66.84
34237;BME280;20501;45.956;13.632;2023-04-15T08:18:09;99662.50;;;12.69;67.71
34237;BME280;20501;45.956;13.632;2023-04-15T08:20:35;99663.28;;;12.86;68.47
34237;BME280;20501;45.956;13.632;2023-04-15T08:23:01;99666.22;;;12.20;69.62
34237;BME280;20501;45.956;13.632;2023-04-15T08:25:27;99663.03;;;11.17;72.48
34237;BME280;20501;45.956;13.632;2023-04-15T08:27:55;99665.91;;;11.73;71.97
34237;BME280;20501;45.956;13.632;2023-04-15T08:30:22;99670.06;;;10.93;74.52
34237;BME280;20501;45.956;13.632;2023-04-15T08:32:49;99675.75;;;10.74;75.67
34237;BME280;20501;45.956;13.632;2023-04-15T08:35:14;99676.13;;;10.79;74.72
34237;BME280;20501;45.956;13.632;2023-04-15T08:37:40;99676.88;;;11.14;73.74
34237;BME280;20501;45.956;13.632;2023-04-15T08:40:05;99676.06;;;11.88;70.99
34237;BME280;20501;45.956;13.632;2023-04-15T08:42:37;99670.88;;;12.51;68.32
34237;BME280;20501;45.956;13.632;2023-04-15T08:45:08;99674.69;;;12.17;69.63
34237;BME280;20501;45.956;13.632;2023-04-15T08:47:35;99672.38;;;11.81;71.17
34237;BME280;20501;45.956;13.632;2023-04-15T08:50:03;99672.19;;;11.99;72.00
34237;BME280;20501;45.956;13.632;2023-04-15T08:52:30;99665.34;;;12.36;69.30
34237;BME280;20501;45.956;13.632;2023-04-15T08:54:57;99677.09;;;11.70;72.28
34237;BME280;20501;45.956;13.632;2023-04-15T08:57:27;99685.97;;;11.13;74.01
34237;BME280;20501;45.956;13.632;2023-04-15T08:59:54;99674.84;;;11.24;74.54
34237;BME280;20501;45.956;13.632;2023-04-15T09:02:20;99683.28;;;11.05;75.86
34237;BME280;20501;45.956;13.632;2023-04-15T09:04:47;99685.84;;;11.39;73.48
34237;BME280;20501;45.956;13.632;2023-04-15T09:07:12;99687.38;;;11.67;73.52
34237;BME280;20501;45.956;13.632;2023-04-15T09:09:37;99680.25;;;11.24;73.87
34237;BME280;20501;45.956;13.632;2023-04-15T09:12:04;99682.78;;;11.09;75.10
34237;BME280;20501;45.956;13.632;2023-04-15T09:14:29;99679.94;;;11.77;72.46
34237;BME280;20501;45.956;13.632;2023-04-15T09:17:00;99675.38;;;11.86;73.49
34237;BME280;20501;45.956;13.632;2023-04-15T09:19:26;99681.13;;;12.07;71.90
34237;BME280;20501;45.956;13.632;2023-04-15T09:21:57;99694.53;;;12.09;71.14
34237;BME280;20501;45.956;13.632;2023-04-15T09:24:24;99689.06;;;12.26;70.68
34237;BME280;20501;45.956;13.632;2023-04-15T09:26:52;99690.97;;;11.59;73.70
34237;BME280;20501;45.956;13.632;2023-04-15T09:29:24;99690.44;;;11.22;75.18
34237;BME280;20501;45.956;13.632;2023-04-15T09:31:51;99692.13;;;11.81;72.74
34237;BME280;20501;45.956;13.632;2023-04-15T09:34:17;99689.78;;;11.70;73.19
34237;BME280;20501;45.956;13.632;2023-04-15T09:36:52;99683.19;;;11.64;73.57
34237;BME280;20501;45.956;13.632;2023-04-15T09:39:18;99685.03;;;11.47;74.63
34237;BME280;20501;45.956;13.632;2023-04-15T09:41:44;99689.75;;;11.37;76.20
34237;BME280;20501;45.956;13.632;2023-04-15T09:44:27;99686.72;;;11.73;74.24
34237;BME280;20501;45.956;13.632;2023-04-15T09:46:53;99691.63;;;11.61;75.94
34237;BME280;20501;45.956;13.632;2023-04-15T09:49:18;99686.72;;;11.81;73.66
34237;BME280;20501;45.956;13.632;2023-04-15T09:51:44;99687.59;;;11.57;76.06
34237;BME280;20501;45.956;13.632;2023-04-15T09:54:10;99697.22;;;11.68;75.27
34237;BME280;20501;45.956;13.632;2023-04-15T09:56:37;99694.84;;;11.56;77.13
34237;BME280;20501;45.956;13.632;2023-04-15T09:59:06;99697.03;;;11.86;76.76
34237;BME280;20501;45.956;13.632;2023-04-15T10:01:32;99691.81;;;11.84;74.06
34237;BME280;20501;45.956;13.632;2023-04-15T10:03:58;99693.16;;;11.80;74.55
34237;BME280;20501;45.956;13.632;2023-04-15T10:06:26;99689.97;;;12.01;73.20
34237;BME280;20501;45.956;13.632;2023-04-15T10:08:53;99688.09;;;12.02;74.07
34237;BME280;20501;45.956;13.632;2023-04-15T10:11:18;99697.81;;;12.52;71.65
34237;BME280;20501;45.956;13.632;2023-04-15T10:13:45;99697.22;;;11.84;73.77
34237;BME280;20501;45.956;13.632;2023-04-15T10:16:14;99689.63;;;11.71;74.47
34237;BME280;20501;45.956;13.632;2023-04-15T10:18:45;99691.81;;;12.65;69.67
34237;BME280;20501;45.956;13.632;2023-04-15T10:21:11;99686.59;;;12.95;68.68
34237;BME280;20501;45.956;13.632;2023-04-15T10:23:38;99691.03;;;12.48;71.67
34237;BME280;20501;45.956;13.632;2023-04-15T10:26:04;99694.19;;;12.68;69.63
34237;BME280;20501;45.956;13.632;2023-04-15T10:28:30;99696.34;;;12.25;73.93
34237;BME280;20501;45.956;13.632;2023-04-15T10:30:56;99687.31;;;12.49;71.29
34237;BME280;20501;45.956;13.632;2023-04-15T10:33:24;99699.06;;;12.08;73.86
34237;BME280;20501;45.956;13.632;2023-04-15T10:35:50;99689.75;;;12.19;72.73
34237;BME280;20501;45.956;13.632;2023-04-15T10:41:20;99692.66;;;12.01;73.78
34237;BME280;20501;45.956;13.632;2023-04-15T10:49:26;99694.13;;;12.29;69.92
34237;BME280;20501;45.956;13.632;2023-04-15T10:51:56;99690.28;;;11.98;69.82
34237;BME280;20501;45.956;13.632;2023-04-15T10:59:29;99687.75;;;11.64;66.92
34237;BME280;20501;45.956;13.632;2023-04-15T11:02:02;99681.66;;;11.70;68.32
34237;BME280;20501;45.956;13.632;2023-04-15T11:10:03;99687.75;;;11.64;67.64
34237;BME280;20501;45.956;13.632;2023-04-15T11:12:35;99688.25;;;11.67;67.76
34237;BME280;20501;45.956;13.632;2023-04-15T11:15:29;99683.16;;;11.97;65.18
34237;BME280;20501;45.956;13.632;2023-04-15T11:18:17;99685.91;;;11.81;67.85
34237;BME280;20501;45.956;13.632;2023-04-15T11:20:45;99691.47;;;11.54;65.00
34237;BME280;20501;45.956;13.632;2023-04-15T11:23:12;99687.06;;;12.03;65.95
34237;BME280;20501;45.956;13.632;2023-04-15T11:25:38;99688.53;;;12.30;64.69
34237;BME280;20501;45.956;13.632;2023-04-15T11:28:04;99690.53;;;12.45;66.11
34237;BME280;20501;45.956;13.632;2023-04-15T11:30:35;99692.13;;;12.70;65.80
34237;BME280;20501;45.956;13.632;2023-04-15T11:33:03;99691.59;;;12.35;66.44
34237;BME280;20501;45.956;13.632;2023-04-15T11:35:29;99677.97;;;12.52;66.62
34237;BME280;20501;45.956;13.632;2023-04-15T11:37:55;99686.56;;;12.07;68.52
34237;BME280;20501;45.956;13.632;2023-04-15T11:40:28;99675.06;;;12.93;65.42
34237;BME280;20501;45.956;13.632;2023-04-15T11:43:23;99679.22;;;12.41;66.20
34237;BME280;20501;45.956;13.632;2023-04-15T11:45:56;99695.47;;;12.41;64.48
34237;BME280;20501;45.956;13.632;2023-04-15T11:48:26;99697.00;;;12.75;65.97
34237;BME280;20501;45.956;13.632;2023-04-15T11:50:54;99711.59;;;12.10;66.84
34237;BME280;20501;45.956;13.632;2023-04-15T11:53:20;99706.09;;;12.51;64.57
34237;BME280;20501;45.956;13.632;2023-04-15T11:55:52;99707.41;;;12.63;65.20
34237;BME280;20501;45.956;13.632;2023-04-15T11:58:19;99716.31;;;12.24;65.74
34237;BME280;20501;45.956;13.632;2023-04-15T12:00:47;99716.47;;;12.39;66.49
34237;BME280;20501;45.956;13.632;2023-04-15T12:03:34;99715.84;;;11.87;67.34
34237;BME280;20501;45.956;13.632;2023-04-15T12:06:17;99725.59;;;11.47;68.69
34237;BME280;20501;45.956;13.632;2023-04-15T12:16:47;99719.56;;;12.03;67.69
34237;BME280;20501;45.956;13.632;2023-04-15T12:19:19;99714.31;;;12.01;66.73
34237;BME280;20501;45.956;13.632;2023-04-15T12:21:47;99720.22;;;11.97;68.93
34237;BME280;20501;45.956;13.632;2023-04-15T12:24:13;99723.09;;;12.84;65.75
34237;BME280;20501;45.956;13.632;2023-04-15T12:26:52;99720.13;;;12.63;63.77
34237;BME280;20501;45.956;13.632;2023-04-15T12:29:19;99716.16;;;12.74;64.80
34237;BME280;20501;45.956;13.632;2023-04-15T12:31:46;99723.78;;;12.22;66.67
34237;BME280;20501;45.956;13.632;2023-04-15T12:34:13;99723.78;;;12.14;64.22
34237;BME280;20501;45.956;13.632;2023-04-15T12:36:39;99723.94;;;11.96;65.14
34237;BME280;20501;45.956;13.632;2023-04-15T12:39:04;99717.53;;;12.05;65.75
34237;BME280;20501;45.956;13.632;2023-04-15T12:41:33;99715.81;;;12.12;63.95
34237;BME280;20501;45.956;13.632;2023-04-15T12:43:59;99711.88;;;12.39;64.67
34237;BME280;20501;45.956;13.632;2023-04-15T12:46:24;99711.31;;;13.00;64.09
34237;BME280;20501;45.956;13.632;2023-04-15T12:48:51;99706.28;;;13.21;63.41
34237;BME280;20501;45.956;13.632;2023-04-15T12:51:17;99706.13;;;13.14;59.91
34237;BME280;20501;45.956;13.632;2023-04-15T12:53:43;99712.19;;;13.24;61.56
34237;BME280;20501;45.956;13.632;2023-04-15T12:56:09;99710.47;;;13.00;62.30
34237;BME280;20501;45.956;13.632;2023-04-15T12:58:34;99708.56;;;13.32;62.66
34237;BME280;20501;45.956;13.632;2023-04-15T13:01:00;99698.16;;;12.81;59.34
34237;BME280;20501;45.956;13.632;2023-04-15T13:03:25;99695.69;;;12.71;58.71
34237;BME280;20501;45.956;13.632;2023-04-15T13:05:51;99697.06;;;13.30;62.16
34237;BME280;20501;45.956;13.632;2023-04-15T13:08:17;99695.16;;;13.39;61.75
34237;BME280;20501;45.956;13.632;2023-04-15T13:10:43;99683.97;;;13.42;56.25
34237;BME280;20501;45.956;13.632;2023-04-15T13:13:09;99701.31;;;13.24;60.23
34237;BME280;20501;45.956;13.632;2023-04-15T13:15:34;99688.00;;;12.83;55.46